Time;durP1;ratioP1;P1;durP2;ratioP2;P2;SDS_P1;SDS_P2;PMS_P1;PMS_P2;Temp;Humidity;BMP_temperature;BMP_pressure;BME280_temperature;BME280_humidity;BME280_pressure;Samples;Min_cycle;Max_cycle;Signal;HPM_P1;HPM_P2
2022/11/01 00:01:16;;;;;;;;;;;20.80;55.50;;;;;;5063440;28;20015;-77
2022/11/01 00:03:43;;;;;;;;;;;20.80;55.50;;;;;;5079197;28;19974;-76
2022/11/01 00:06:10;;;;;;;;;;;20.80;55.50;;;;;;5081190;28;19927;-76
2022/11/01 00:08:36;;;;;;;;;;;20.70;55.40;;;;;;5062381;28;19921;-77
2022/11/01 00:11:03;;;;;;;;;;;20.80;55.50;;;;;;5059365;28;19922;-75
2022/11/01 00:13:31;;;;;;;;;;;20.80;55.50;;;;;;5059720;28;19943;-76
2022/11/01 00:15:58;;;;;;;;;;;20.80;55.50;;;;;;5057637;28;19956;-76
2022/11/01 00:18:25;;;;;;;;;;;20.80;55.40;;;;;;5043086;28;19921;-76
2022/11/01 00:20:52;;;;;;;;;;;20.80;55.50;;;;;;5044454;28;19928;-76
2022/11/01 00:23:18;;;;;;;;;;;20.80;55.50;;;;;;5044652;28;19921;-77
2022/11/01 00:25:45;;;;;;;;;;;20.80;55.50;;;;;;5070347;28;19944;-76
2022/11/01 00:28:12;;;;;;;;;;;20.70;55.40;;;;;;5060282;28;19979;-77
2022/11/01 00:30:40;;;;;;;;;;;20.70;55.40;;;;;;5059294;28;19928;-76
2022/11/01 00:33:07;;;;;;;;;;;20.70;55.40;;;;;;5063643;28;20362;-77
2022/11/01 00:35:35;;;;;;;;;;;20.70;55.40;;;;;;5046457;28;19975;-77
2022/11/01 00:38:02;;;;;;;;;;;20.70;55.40;;;;;;5061820;28;19988;-76
2022/11/01 00:40:32;;;;;;;;;;;20.70;55.40;;;;;;5064501;28;19936;-77
2022/11/01 00:42:59;;;;;;;;;;;20.70;55.40;;;;;;5062745;28;19921;-77
2022/11/01 00:45:26;;;;;;;;;;;20.70;55.40;;;;;;5061403;28;19925;-77
2022/11/01 00:47:54;;;;;;;;;;;20.80;55.50;;;;;;5074282;28;19928;-77
2022/11/01 00:50:21;;;;;;;;;;;20.70;55.40;;;;;;5061744;28;19928;-77
2022/11/01 00:52:50;;;;;;;;;;;20.70;55.40;;;;;;5054515;28;19928;-77
2022/11/01 00:55:17;;;;;;;;;;;20.70;55.40;;;;;;5062829;28;19921;-76
2022/11/01 00:57:44;;;;;;;;;;;20.70;55.40;;;;;;5064704;28;20010;-78
2022/11/01 01:00:11;;;;;;;;;;;20.70;55.40;;;;;;5081442;28;19971;-77
2022/11/01 01:02:38;;;;;;;;;;;20.70;55.40;;;;;;5062013;28;19926;-76
2022/11/01 01:05:07;;;;;;;;;;;20.70;55.40;;;;;;5063443;28;19920;-77
2022/11/01 01:07:33;;;;;;;;;;;20.70;55.40;;;;;;5062463;28;19920;-76
2022/11/01 01:10:00;;;;;;;;;;;20.70;55.40;;;;;;5062908;28;19928;-76
2022/11/01 01:12:27;;;;;;;;;;;20.70;55.40;;;;;;5075875;28;19920;-77
2022/11/01 01:14:54;;;;;;;;;;;20.70;55.40;;;;;;5082224;28;19943;-76
2022/11/01 01:17:20;;;;;;;;;;;20.70;55.40;;;;;;5083852;28;19920;-76
2022/11/01 01:19:47;;;;;;;;;;;20.70;55.40;;;;;;5079882;28;19920;-76
2022/11/01 01:22:15;;;;;;;;;;;20.70;55.50;;;;;;5063874;28;19970;-77
2022/11/01 01:24:44;;;;;;;;;;;20.80;56.10;;;;;;5050434;28;19920;-77
2022/11/01 01:27:11;;;;;;;;;;;20.70;55.50;;;;;;5083076;28;19920;-77
2022/11/01 01:29:40;;;;;;;;;;;20.70;55.50;;;;;;5083243;28;19920;-77
2022/11/01 01:32:07;;;;;;;;;;;20.70;55.50;;;;;;5086622;28;19966;-77
2022/11/01 01:34:34;;;;;;;;;;;20.70;55.50;;;;;;5052785;28;19971;-76
2022/11/01 01:37:00;;;;;;;;;;;20.70;55.50;;;;;;5062919;28;19920;-77
2022/11/01 01:39:28;;;;;;;;;;;20.70;55.50;;;;;;5072627;28;19964;-77
2022/11/01 01:41:55;;;;;;;;;;;20.70;55.50;;;;;;5062485;28;19937;-77
2022/11/01 01:44:55;;;;;;;;;;;20.70;55.50;;;;;;5064544;28;19925;-77
2022/11/01 01:47:23;;;;;;;;;;;20.80;55.60;;;;;;5005714;28;19921;-76
2022/11/01 01:49:50;;;;;;;;;;;20.70;55.50;;;;;;5013974;28;19925;-77
2022/11/01 01:52:17;;;;;;;;;;;20.70;55.50;;;;;;5043650;28;19984;-76
2022/11/01 01:54:45;;;;;;;;;;;20.70;55.50;;;;;;5063829;28;19920;-77
2022/11/01 01:57:12;;;;;;;;;;;20.70;55.50;;;;;;5064053;28;19992;-76
2022/11/01 01:59:38;;;;;;;;;;;20.70;55.50;;;;;;5066709;28;19970;-77
2022/11/01 02:02:05;;;;;;;;;;;20.70;55.50;;;;;;5064063;28;19920;-77
2022/11/01 02:04:33;;;;;;;;;;;20.70;55.60;;;;;;5064024;28;19976;-77
2022/11/01 02:06:59;;;;;;;;;;;20.70;55.50;;;;;;5046149;28;20374;-78
2022/11/01 02:09:26;;;;;;;;;;;20.70;55.60;;;;;;5067987;28;19927;-77
2022/11/01 02:11:54;;;;;;;;;;;20.70;55.50;;;;;;5058030;28;19959;-78
2022/11/01 02:14:21;;;;;;;;;;;20.70;55.60;;;;;;5082554;28;19931;-78
2022/11/01 02:16:49;;;;;;;;;;;20.80;55.70;;;;;;5068147;28;19920;-78
2022/11/01 02:19:38;;;;;;;;;;;20.70;55.60;;;;;;5050264;28;19964;-77
2022/11/01 02:22:05;;;;;;;;;;;20.70;55.60;;;;;;5060466;28;19956;-77
2022/11/01 02:24:49;;;;;;;;;;;20.70;55.60;;;;;;5060526;28;19920;-75
2022/11/01 02:27:27;;;;;;;;;;;20.70;55.60;;;;;;5048133;28;19928;-74
2022/11/01 02:30:05;;;;;;;;;;;20.70;55.60;;;;;;5065658;28;19943;-74
2022/11/01 02:32:35;;;;;;;;;;;20.70;55.60;;;;;;5070640;28;19920;-74
2022/11/01 02:35:03;;;;;;;;;;;20.70;55.60;;;;;;5064827;28;19921;-74
2022/11/01 02:37:31;;;;;;;;;;;20.70;55.60;;;;;;5046379;28;19928;-75
2022/11/01 02:39:58;;;;;;;;;;;20.80;55.70;;;;;;5075108;28;20015;-75
2022/11/01 02:42:26;;;;;;;;;;;20.80;55.70;;;;;;5065684;28;19921;-74
2022/11/01 02:44:53;;;;;;;;;;;20.70;55.60;;;;;;5066520;28;19959;-74
2022/11/01 02:47:20;;;;;;;;;;;20.80;55.70;;;;;;5084642;28;19921;-74
2022/11/01 02:49:48;;;;;;;;;;;20.80;55.70;;;;;;5046866;28;20007;-74
2022/11/01 02:52:15;;;;;;;;;;;20.80;55.70;;;;;;5064309;28;19943;-73
2022/11/01 02:54:43;;;;;;;;;;;20.80;55.70;;;;;;5067756;28;19921;-75
2022/11/01 02:57:19;;;;;;;;;;;20.80;55.70;;;;;;5066258;28;19928;-74
2022/11/01 02:59:47;;;;;;;;;;;20.80;55.70;;;;;;5085436;28;19962;-75
2022/11/01 03:02:18;;;;;;;;;;;20.80;55.80;;;;;;5052248;28;19921;-74
2022/11/01 03:04:45;;;;;;;;;;;20.80;55.80;;;;;;5052009;28;19942;-75
2022/11/01 03:07:13;;;;;;;;;;;20.80;55.80;;;;;;5084539;28;19973;-75
2022/11/01 03:09:40;;;;;;;;;;;20.80;55.80;;;;;;5067414;28;19970;-75
2022/11/01 03:12:07;;;;;;;;;;;20.80;55.80;;;;;;5049016;28;19921;-75
2022/11/01 03:14:34;;;;;;;;;;;20.80;55.80;;;;;;5062090;28;19925;-74
2022/11/01 03:17:02;;;;;;;;;;;20.80;55.80;;;;;;5060597;28;19921;-75
2022/11/01 03:19:34;;;;;;;;;;;20.80;55.80;;;;;;5044551;28;19921;-74
2022/11/01 03:22:03;;;;;;;;;;;20.80;55.80;;;;;;5063246;28;19971;-74
2022/11/01 03:24:31;;;;;;;;;;;20.80;55.80;;;;;;5046720;28;19944;-74
2022/11/01 03:26:59;;;;;;;;;;;20.80;55.80;;;;;;5067361;28;19970;-74
2022/11/01 03:29:26;;;;;;;;;;;20.80;56.40;;;;;;5085406;28;19967;-75
2022/11/01 03:31:53;;;;;;;;;;;20.80;55.80;;;;;;5075193;28;19921;-75
2022/11/01 03:34:20;;;;;;;;;;;20.80;55.80;;;;;;5045854;28;19970;-74
2022/11/01 03:36:47;;;;;;;;;;;20.80;55.80;;;;;;5053978;28;19942;-75
2022/11/01 03:39:15;;;;;;;;;;;20.80;55.80;;;;;;5048816;28;19921;-76
2022/11/01 03:41:43;;;;;;;;;;;20.80;55.80;;;;;;5060944;28;19928;-75
2022/11/01 03:44:10;;;;;;;;;;;20.80;55.80;;;;;;5061947;28;19921;-75
2022/11/01 03:46:37;;;;;;;;;;;20.80;55.90;;;;;;5044242;28;19970;-75
2022/11/01 03:49:04;;;;;;;;;;;20.80;55.90;;;;;;5061410;28;19921;-74
2022/11/01 03:51:31;;;;;;;;;;;20.80;55.90;;;;;;5045613;28;20073;-75
2022/11/01 03:53:58;;;;;;;;;;;20.80;55.90;;;;;;5061415;28;20087;-76
2022/11/01 03:56:24;;;;;;;;;;;20.80;55.90;;;;;;5041956;28;19927;-74
2022/11/01 03:58:52;;;;;;;;;;;20.80;55.90;;;;;;5062613;28;19935;-75
2022/11/01 04:01:19;;;;;;;;;;;20.80;55.90;;;;;;5059682;28;19966;-74
2022/11/01 04:03:46;;;;;;;;;;;20.80;55.90;;;;;;5042817;28;19967;-75
2022/11/01 04:06:13;;;;;;;;;;;20.80;55.90;;;;;;5052951;28;19951;-75
2022/11/01 04:08:39;;;;;;;;;;;20.80;55.90;;;;;;5082189;28;19994;-76
2022/11/01 04:11:06;;;;;;;;;;;20.80;56.00;;;;;;5079293;28;20362;-75
2022/11/01 04:13:35;;;;;;;;;;;20.80;56.00;;;;;;5079823;28;19974;-74
2022/11/01 04:21:32;;;;;;;;;;;20.80;56.00;;;;;;5060110;28;19920;-75
2022/11/01 04:23:59;;;;;;;;;;;20.80;55.90;;;;;;5059692;28;19921;-75
2022/11/01 04:26:25;;;;;;;;;;;20.80;55.90;;;;;;5076981;28;19928;-75
2022/11/01 04:28:58;;;;;;;;;;;20.80;55.90;;;;;;5074550;28;19921;-75
2022/11/01 04:31:27;;;;;;;;;;;20.80;55.90;;;;;;5061969;28;19974;-75
2022/11/01 04:33:54;;;;;;;;;;;20.80;55.90;;;;;;5040872;28;20255;-74
2022/11/01 04:36:20;;;;;;;;;;;20.80;55.90;;;;;;5044082;28;19924;-75
2022/11/01 04:38:48;;;;;;;;;;;20.80;55.90;;;;;;5060060;28;20345;-75
2022/11/01 04:41:16;;;;;;;;;;;20.80;55.90;;;;;;5060753;28;19986;-75
2022/11/01 04:43:42;;;;;;;;;;;20.80;55.90;;;;;;5064401;28;19920;-74
2022/11/01 04:46:09;;;;;;;;;;;20.80;56.00;;;;;;5081804;28;19920;-74
2022/11/01 04:48:37;;;;;;;;;;;20.80;55.90;;;;;;5065360;28;20381;-75
2022/11/01 04:51:04;;;;;;;;;;;20.80;56.00;;;;;;5082810;28;19920;-75
2022/11/01 04:53:31;;;;;;;;;;;20.80;56.00;;;;;;5060035;28;20279;-74
2022/11/01 04:55:58;;;;;;;;;;;20.80;55.90;;;;;;5060989;28;19921;-75
2022/11/01 04:58:24;;;;;;;;;;;20.80;56.00;;;;;;5045928;28;19921;-74
2022/11/01 05:00:51;;;;;;;;;;;20.80;56.00;;;;;;5062728;28;19921;-74
2022/11/01 05:03:18;;;;;;;;;;;20.80;56.00;;;;;;5060258;28;19960;-75
2022/11/01 05:05:46;;;;;;;;;;;20.80;56.00;;;;;;5060992;28;19974;-74
2022/11/01 05:08:13;;;;;;;;;;;20.80;56.00;;;;;;5059373;28;19943;-75
2022/11/01 05:10:40;;;;;;;;;;;20.80;56.00;;;;;;5062758;28;19998;-75
2022/11/01 05:13:07;;;;;;;;;;;20.80;55.90;;;;;;5047446;28;19950;-74
2022/11/01 05:15:34;;;;;;;;;;;20.80;56.00;;;;;;5062137;28;19964;-75
2022/11/01 05:18:01;;;;;;;;;;;20.80;56.00;;;;;;5080838;28;19951;-74
2022/11/01 05:20:29;;;;;;;;;;;20.80;56.00;;;;;;5062829;28;19959;-74
2022/11/01 05:22:59;;;;;;;;;;;20.80;56.00;;;;;;5062076;28;19920;-74
2022/11/01 05:25:26;;;;;;;;;;;20.80;56.00;;;;;;5059912;28;20425;-74
2022/11/01 05:27:58;;;;;;;;;;;20.80;56.00;;;;;;5081012;28;19943;-75
2022/11/01 05:30:25;;;;;;;;;;;20.80;56.00;;;;;;5060959;28;19975;-75
2022/11/01 05:32:55;;;;;;;;;;;20.80;56.50;;;;;;5061648;28;20316;-75
2022/11/01 05:35:22;;;;;;;;;;;20.80;56.00;;;;;;5063932;28;19942;-75
2022/11/01 05:37:49;;;;;;;;;;;20.80;56.00;;;;;;5078128;28;19920;-75
2022/11/01 05:40:17;;;;;;;;;;;20.80;56.00;;;;;;5063358;28;19935;-75
2022/11/01 05:42:44;;;;;;;;;;;20.80;56.00;;;;;;5061316;28;19921;-75
2022/11/01 05:45:10;;;;;;;;;;;20.80;55.90;;;;;;5081376;28;19920;-75
2022/11/01 05:47:39;;;;;;;;;;;20.80;56.00;;;;;;5061426;28;19920;-76
2022/11/01 05:50:07;;;;;;;;;;;20.80;56.00;;;;;;5063233;28;19990;-75
2022/11/01 05:52:33;;;;;;;;;;;20.80;56.00;;;;;;5061996;28;19920;-75
2022/11/01 05:55:00;;;;;;;;;;;20.80;56.00;;;;;;5064777;28;19920;-75
2022/11/01 05:57:28;;;;;;;;;;;20.80;56.00;;;;;;5074306;28;20350;-74
2022/11/01 05:59:55;;;;;;;;;;;20.80;56.00;;;;;;5063060;28;19920;-75
2022/11/01 06:02:21;;;;;;;;;;;20.80;56.00;;;;;;5062404;28;19970;-76
2022/11/01 06:04:48;;;;;;;;;;;20.80;56.00;;;;;;5082222;28;19943;-76
2022/11/01 06:07:15;;;;;;;;;;;20.80;56.00;;;;;;5061815;28;20018;-77
2022/11/01 06:09:41;;;;;;;;;;;20.80;56.00;;;;;;5076254;28;19974;-75
2022/11/01 06:12:08;;;;;;;;;;;20.80;56.00;;;;;;5058744;28;19920;-76
2022/11/01 06:14:36;;;;;;;;;;;20.80;56.00;;;;;;5059060;28;20025;-77
2022/11/01 06:17:03;;;;;;;;;;;20.80;56.00;;;;;;5058459;28;20014;-79
2022/11/01 06:19:29;;;;;;;;;;;20.80;56.00;;;;;;5059325;28;19943;-77
2022/11/01 06:21:56;;;;;;;;;;;20.80;56.00;;;;;;5061599;28;19974;-75
2022/11/01 06:24:23;;;;;;;;;;;20.80;56.00;;;;;;5072700;28;19974;-79
2022/11/01 06:26:49;;;;;;;;;;;20.80;56.00;;;;;;5059908;28;19951;-78
2022/11/01 06:29:16;;;;;;;;;;;20.70;55.90;;;;;;5059357;28;19956;-79
2022/11/01 06:31:44;;;;;;;;;;;20.80;56.00;;;;;;5052202;28;19921;-80
2022/11/01 06:34:11;;;;;;;;;;;20.70;55.90;;;;;;5060374;28;19925;-79
2022/11/01 06:36:38;;;;;;;;;;;20.70;55.90;;;;;;5059090;28;19920;-79
2022/11/01 06:39:04;;;;;;;;;;;20.70;55.90;;;;;;5060863;28;19921;-79
2022/11/01 06:41:31;;;;;;;;;;;20.70;55.90;;;;;;5059025;28;19942;-77
2022/11/01 06:43:58;;;;;;;;;;;20.70;56.00;;;;;;5058981;28;19955;-78
2022/11/01 06:46:25;;;;;;;;;;;20.70;55.90;;;;;;5051867;28;19927;-78
2022/11/01 06:48:55;;;;;;;;;;;20.80;56.10;;;;;;5075571;28;19936;-79
2022/11/01 06:51:22;;;;;;;;;;;20.70;56.00;;;;;;5064006;28;19956;-79
2022/11/01 06:53:49;;;;;;;;;;;20.70;56.00;;;;;;5064909;28;19920;-79
2022/11/01 06:56:16;;;;;;;;;;;20.70;56.00;;;;;;5063373;28;19950;-78
2022/11/01 06:58:42;;;;;;;;;;;20.70;56.00;;;;;;5062091;28;19928;-78
2022/11/01 07:01:09;;;;;;;;;;;20.70;56.00;;;;;;5042380;28;20735;-79
2022/11/01 07:03:36;;;;;;;;;;;20.70;56.00;;;;;;5078428;28;19942;-78
2022/11/01 07:06:05;;;;;;;;;;;20.70;56.00;;;;;;5054424;28;20011;-78
2022/11/01 07:08:32;;;;;;;;;;;20.70;56.00;;;;;;5044131;28;19924;-78
2022/11/01 07:10:59;;;;;;;;;;;20.70;56.00;;;;;;5073897;28;20019;-78
2022/11/01 07:13:27;;;;;;;;;;;20.70;56.00;;;;;;5061239;28;19921;-78
2022/11/01 07:15:54;;;;;;;;;;;20.70;56.00;;;;;;5063344;28;19920;-78
2022/11/01 07:18:21;;;;;;;;;;;20.70;56.00;;;;;;5060507;28;19963;-78
2022/11/01 07:20:48;;;;;;;;;;;20.70;56.00;;;;;;5066071;28;19920;-78
2022/11/01 07:23:16;;;;;;;;;;;20.70;56.00;;;;;;5056830;28;19928;-78
2022/11/01 07:25:43;;;;;;;;;;;20.70;56.00;;;;;;5065527;28;19920;-78
2022/11/01 07:28:10;;;;;;;;;;;20.70;56.00;;;;;;5065127;28;20321;-78
2022/11/01 07:30:38;;;;;;;;;;;20.70;56.00;;;;;;5061311;28;19921;-78
2022/11/01 07:33:04;;;;;;;;;;;20.70;56.00;;;;;;5082114;28;19921;-78
2022/11/01 07:35:31;;;;;;;;;;;20.70;56.00;;;;;;5083101;28;20290;-78
2022/11/01 07:37:58;;;;;;;;;;;20.70;56.00;;;;;;5071957;28;20340;-78
2022/11/01 07:40:27;;;;;;;;;;;20.70;56.00;;;;;;5043146;28;19924;-78
2022/11/01 07:42:54;;;;;;;;;;;20.70;56.00;;;;;;5044243;28;19964;-78
2022/11/01 07:45:21;;;;;;;;;;;20.70;56.00;;;;;;5063927;28;19948;-78
2022/11/01 07:47:48;;;;;;;;;;;20.70;56.00;;;;;;5079092;28;19920;-79
2022/11/01 07:50:15;;;;;;;;;;;20.70;56.00;;;;;;5059270;28;19960;-80
2022/11/01 07:52:47;;;;;;;;;;;20.70;56.00;;;;;;5075429;28;19956;-79
2022/11/01 07:55:13;;;;;;;;;;;20.70;56.10;;;;;;5059547;28;19920;-79
2022/11/01 07:57:42;;;;;;;;;;;20.70;56.10;;;;;;5074585;28;19924;-78
2022/11/01 08:00:09;;;;;;;;;;;20.70;56.10;;;;;;5059199;28;19927;-78
2022/11/01 08:02:36;;;;;;;;;;;20.70;56.10;;;;;;5054981;28;19920;-71
2022/11/01 08:05:05;;;;;;;;;;;20.70;56.10;;;;;;5042216;28;20370;-74
2022/11/01 08:07:36;;;;;;;;;;;20.70;56.10;;;;;;5049060;28;19921;-71
2022/11/01 08:19:13;;;;;;;;;;;20.70;56.10;;;;;;5075866;28;19913;-72
2022/11/01 08:21:40;;;;;;;;;;;20.70;56.10;;;;;;5057519;28;19921;-71
2022/11/01 08:24:07;;;;;;;;;;;20.70;56.10;;;;;;5060752;28;19948;-73
2022/11/01 08:26:34;;;;;;;;;;;20.70;56.20;;;;;;5077358;28;20309;-71
2022/11/01 08:29:00;;;;;;;;;;;20.70;56.10;;;;;;5074725;28;19921;-71
2022/11/01 08:31:27;;;;;;;;;;;20.80;56.30;;;;;;5059683;28;19960;-71
2022/11/01 08:33:54;;;;;;;;;;;20.80;56.30;;;;;;5075325;28;19920;-72
2022/11/01 08:36:22;;;;;;;;;;;20.80;56.20;;;;;;5058857;28;19921;-77
2022/11/01 08:38:48;;;;;;;;;;;20.80;56.30;;;;;;5073218;28;19921;-72
2022/11/01 08:41:16;;;;;;;;;;;20.80;56.20;;;;;;5075792;28;19921;-72
2022/11/01 08:43:42;;;;;;;;;;;20.80;56.20;;;;;;5056924;28;19970;-73
2022/11/01 08:46:09;;;;;;;;;;;20.80;56.20;;;;;;5075388;28;19928;-71
2022/11/01 08:48:36;;;;;;;;;;;20.80;56.20;;;;;;5056449;28;19920;-72
2022/11/01 08:51:03;;;;;;;;;;;20.80;56.20;;;;;;5057171;28;19982;-76
2022/11/01 08:53:31;;;;;;;;;;;20.80;56.20;;;;;;5056480;28;19971;-73
2022/11/01 08:55:58;;;;;;;;;;;20.80;56.70;;;;;;5056205;28;20114;-72
2022/11/01 08:58:25;;;;;;;;;;;20.80;56.20;;;;;;5056974;28;20270;-73
2022/11/01 09:00:51;;;;;;;;;;;20.80;56.10;;;;;;5075077;28;19970;-73
2022/11/01 09:03:19;;;;;;;;;;;20.80;56.10;;;;;;5073472;28;19920;-73
2022/11/01 09:05:46;;;;;;;;;;;20.80;56.10;;;;;;5076407;28;19927;-72
2022/11/01 09:08:12;;;;;;;;;;;20.80;56.10;;;;;;5075850;28;19990;-72
2022/11/01 09:10:40;;;;;;;;;;;20.80;56.10;;;;;;5058183;28;19973;-72
2022/11/01 09:13:07;;;;;;;;;;;20.80;56.10;;;;;;5054329;28;19969;-72
2022/11/01 09:15:34;;;;;;;;;;;20.80;56.10;;;;;;5074387;28;19975;-72
2022/11/01 09:18:04;;;;;;;;;;;20.80;56.10;;;;;;5058838;28;19986;-73
2022/11/01 09:20:30;;;;;;;;;;;20.80;56.10;;;;;;5067382;28;19920;-73
2022/11/01 09:22:57;;;;;;;;;;;20.90;56.10;;;;;;5074986;28;19987;-72
2022/11/01 09:25:24;;;;;;;;;;;20.80;56.00;;;;;;5056412;28;19921;-73
2022/11/01 09:27:52;;;;;;;;;;;20.90;56.10;;;;;;5067260;28;20251;-71
2022/11/01 09:30:19;;;;;;;;;;;20.90;56.00;;;;;;5057531;28;19970;-72
2022/11/01 09:32:46;;;;;;;;;;;20.90;56.00;;;;;;5055761;28;19924;-73
2022/11/01 09:35:12;;;;;;;;;;;20.90;56.00;;;;;;5057288;28;19991;-72
2022/11/01 09:37:39;;;;;;;;;;;20.90;56.00;;;;;;5056018;28;20007;-72
2022/11/01 09:40:06;;;;;;;;;;;20.90;56.00;;;;;;5076461;28;19970;-73
2022/11/01 09:42:34;;;;;;;;;;;20.90;55.90;;;;;;5054704;28;19959;-73
2022/11/01 09:45:03;;;;;;;;;;;20.90;55.90;;;;;;5052214;28;20418;-72
2022/11/01 09:47:30;;;;;;;;;;;20.90;55.90;;;;;;5075179;28;19975;-72
2022/11/01 09:49:59;;;;;;;;;;;20.90;55.90;;;;;;5056567;28;19959;-72
2022/11/01 09:52:25;;;;;;;;;;;20.90;55.80;;;;;;5058883;28;19921;-72
2022/11/01 09:54:52;;;;;;;;;;;20.90;55.80;;;;;;5055266;28;19982;-73
2022/11/01 09:57:19;;;;;;;;;;;20.90;55.80;;;;;;5059116;28;19928;-73
2022/11/01 09:59:47;;;;;;;;;;;20.90;55.80;;;;;;5057067;28;19921;-81
2022/11/01 10:02:24;;;;;;;;;;;20.90;55.80;;;;;;5059268;28;20348;-80
2022/11/01 10:04:57;;;;;;;;;;;20.90;55.80;;;;;;5073741;28;19921;-73
2022/11/01 10:07:25;;;;;;;;;;;20.90;55.80;;;;;;5069096;28;20326;-73
2022/11/01 10:09:53;;;;;;;;;;;20.90;55.80;;;;;;5057790;28;19991;-72
2022/11/01 10:12:26;;;;;;;;;;;20.90;55.80;;;;;;5052494;28;19932;-72
2022/11/01 10:15:03;;;;;;;;;;;20.90;55.80;;;;;;5054895;28;20381;-72
2022/11/01 10:17:38;;;;;;;;;;;20.90;55.80;;;;;;5055347;28;19920;-70
2022/11/01 10:20:04;;;;;;;;;;;20.90;55.80;;;;;;5052117;28;20011;-70
2022/11/01 10:22:32;;;;;;;;;;;20.90;55.80;;;;;;5054379;28;19943;-71
2022/11/01 10:24:59;;;;;;;;;;;20.90;55.80;;;;;;5055342;28;20280;-72
2022/11/01 10:27:28;;;;;;;;;;;21.00;55.90;;;;;;5067889;28;20366;-72
2022/11/01 10:29:55;;;;;;;;;;;21.00;55.90;;;;;;5057901;28;19920;-71
2022/11/01 10:32:26;;;;;;;;;;;21.00;55.90;;;;;;5055038;28;19960;-70
2022/11/01 10:34:54;;;;;;;;;;;21.00;55.90;;;;;;5074534;28;19966;-72
2022/11/01 10:37:22;;;;;;;;;;;21.00;56.00;;;;;;5040117;28;20012;-70
2022/11/01 10:39:50;;;;;;;;;;;21.00;55.90;;;;;;5057697;28;19921;-69
2022/11/01 10:42:17;;;;;;;;;;;21.00;55.90;;;;;;5053830;28;19970;-70
2022/11/01 10:44:45;;;;;;;;;;;21.00;55.90;;;;;;5056494;28;19925;-72
2022/11/01 10:47:13;;;;;;;;;;;21.00;55.90;;;;;;5057781;28;20312;-71
2022/11/01 10:49:40;;;;;;;;;;;21.10;56.10;;;;;;5057809;28;19920;-70
2022/11/01 10:52:09;;;;;;;;;;;21.10;56.10;;;;;;5060851;28;19943;-71
2022/11/01 10:54:36;;;;;;;;;;;21.10;56.10;;;;;;5055590;28;20015;-71
2022/11/01 10:57:03;;;;;;;;;;;21.10;56.10;;;;;;5042343;28;19927;-71
2022/11/01 10:59:32;;;;;;;;;;;21.10;56.10;;;;;;5061328;28;20305;-76
2022/11/01 11:01:59;;;;;;;;;;;21.10;56.10;;;;;;5060248;28;19920;-71
2022/11/01 11:04:25;;;;;;;;;;;21.10;56.10;;;;;;5078736;28;19921;-69
2022/11/01 11:06:52;;;;;;;;;;;21.10;56.10;;;;;;5065587;28;19960;-69
2022/11/01 11:09:22;;;;;;;;;;;21.10;56.10;;;;;;5059450;28;19921;-67
2022/11/01 11:11:49;;;;;;;;;;;21.10;56.10;;;;;;5055108;28;19971;-68
2022/11/01 11:14:16;;;;;;;;;;;21.10;56.10;;;;;;5057710;28;19979;-69
2022/11/01 11:16:43;;;;;;;;;;;21.10;56.10;;;;;;5054966;28;19959;-70
2022/11/01 11:19:15;;;;;;;;;;;21.10;56.10;;;;;;5041854;28;19921;-72
2022/11/01 11:21:42;;;;;;;;;;;21.10;56.10;;;;;;5077204;28;19921;-69
2022/11/01 11:24:15;;;;;;;;;;;21.20;56.20;;;;;;5075000;28;19927;-71
2022/11/01 11:26:43;;;;;;;;;;;21.20;56.10;;;;;;5076160;28;19921;-66
2022/11/01 11:29:10;;;;;;;;;;;21.20;56.10;;;;;;5065915;28;19968;-69
2022/11/01 11:31:37;;;;;;;;;;;21.20;56.10;;;;;;5057817;28;19920;-71
2022/11/01 11:34:04;;;;;;;;;;;21.20;56.10;;;;;;5043663;28;19971;-74
2022/11/01 11:36:32;;;;;;;;;;;21.20;56.10;;;;;;5041382;28;19975;-72
2022/11/01 11:38:59;;;;;;;;;;;21.20;56.10;;;;;;5054597;28;20378;-67
2022/11/01 11:41:26;;;;;;;;;;;21.20;56.10;;;;;;5038756;28;19924;-74
2022/11/01 11:43:54;;;;;;;;;;;21.20;56.10;;;;;;5055244;28;19921;-77
2022/11/01 11:46:22;;;;;;;;;;;21.20;56.10;;;;;;5043385;28;19920;-72
2022/11/01 11:48:49;;;;;;;;;;;21.20;56.10;;;;;;5077686;28;19928;-73
2022/11/01 11:51:16;;;;;;;;;;;21.20;56.10;;;;;;5056985;28;19927;-71
2022/11/01 11:53:43;;;;;;;;;;;21.20;56.60;;;;;;5056863;28;19928;-69
2022/11/01 11:56:10;;;;;;;;;;;21.20;56.00;;;;;;5057334;28;19974;-69
2022/11/01 11:58:37;;;;;;;;;;;21.20;56.00;;;;;;5039634;28;19925;-66
2022/11/01 12:01:06;;;;;;;;;;;21.20;56.00;;;;;;5071304;28;20032;-67
2022/11/01 12:03:33;;;;;;;;;;;21.20;55.90;;;;;;5053397;28;19921;-66
2022/11/01 12:06:01;;;;;;;;;;;21.20;55.20;;;;;;5055215;28;19932;-66
2022/11/01 12:08:35;;;;;;;;;;;21.10;53.40;;;;;;5068129;28;19920;-65
2022/11/01 12:11:02;;;;;;;;;;;21.10;51.60;;;;;;5039542;28;19928;-65
2022/11/01 12:13:33;;;;;;;;;;;21.10;51.50;;;;;;5056476;28;19944;-65
2022/11/01 12:16:08;;;;;;;;;;;21.00;50.70;;;;;;5046357;28;19924;-65
2022/11/01 12:18:35;;;;;;;;;;;21.00;50.30;;;;;;5059491;28;19988;-65
2022/11/01 12:21:02;;;;;;;;;;;20.90;49.40;;;;;;5073801;28;20016;-65
2022/11/01 12:23:30;;;;;;;;;;;20.90;49.70;;;;;;5056307;28;19920;-65
2022/11/01 12:25:57;;;;;;;;;;;20.90;49.60;;;;;;5050728;28;19960;-66
2022/11/01 12:28:24;;;;;;;;;;;20.80;49.30;;;;;;5057806;28;20010;-65
2022/11/01 12:30:52;;;;;;;;;;;20.80;49.80;;;;;;5059095;28;19967;-63
2022/11/01 12:33:21;;;;;;;;;;;20.80;49.40;;;;;;5057873;28;20447;-64
2022/11/01 12:35:48;;;;;;;;;;;20.80;49.50;;;;;;5060085;28;19921;-67
2022/11/01 12:38:27;;;;;;;;;;;20.80;49.90;;;;;;5054886;28;19975;-76
2022/11/01 12:40:54;;;;;;;;;;;20.80;50.30;;;;;;5062488;28;20430;-69
2022/11/01 12:43:22;;;;;;;;;;;20.80;50.50;;;;;;5058890;28;19920;-68
2022/11/01 12:45:50;;;;;;;;;;;20.80;50.90;;;;;;5055831;28;19920;-68
2022/11/01 12:48:18;;;;;;;;;;;20.80;50.90;;;;;;5058383;28;19964;-68
2022/11/01 12:50:46;;;;;;;;;;;20.80;51.10;;;;;;5073757;28;19924;-68
2022/11/01 12:53:14;;;;;;;;;;;20.90;51.20;;;;;;5056357;28;20015;-68
2022/11/01 12:55:41;;;;;;;;;;;20.90;51.20;;;;;;5075326;28;19966;-69
2022/11/01 12:58:09;;;;;;;;;;;20.90;51.20;;;;;;5055980;28;20070;-68
2022/11/01 13:00:38;;;;;;;;;;;20.90;51.20;;;;;;5055881;28;20011;-68
2022/11/01 13:03:09;;;;;;;;;;;20.90;51.20;;;;;;5058233;28;19925;-69
2022/11/01 13:05:39;;;;;;;;;;;20.90;51.10;;;;;;5057977;28;19971;-66
2022/11/01 13:08:11;;;;;;;;;;;20.90;51.20;;;;;;5037083;28;20942;-68
2022/11/01 13:10:39;;;;;;;;;;;20.90;51.20;;;;;;5074769;28;19987;-68
2022/11/01 13:13:09;;;;;;;;;;;20.90;51.20;;;;;;5057523;28;19971;-68
2022/11/01 13:15:41;;;;;;;;;;;21.00;51.20;;;;;;5055074;28;20340;-68
2022/11/01 13:18:09;;;;;;;;;;;21.00;51.20;;;;;;5071018;28;19960;-68
2022/11/01 13:20:43;;;;;;;;;;;21.00;51.20;;;;;;5054590;28;19920;-75
2022/11/01 13:23:14;;;;;;;;;;;21.00;51.10;;;;;;5055340;28;20281;-68
2022/11/01 13:25:42;;;;;;;;;;;21.00;51.00;;;;;;5073989;28;19927;-67
2022/11/01 13:28:13;;;;;;;;;;;21.00;51.00;;;;;;5054766;28;19920;-69
2022/11/01 13:30:40;;;;;;;;;;;21.00;51.10;;;;;;5073011;28;19970;-70
2022/11/01 13:33:10;;;;;;;;;;;21.00;51.00;;;;;;5056241;28;19944;-72
2022/11/01 13:35:43;;;;;;;;;;;21.00;51.00;;;;;;5057109;28;19920;-72
2022/11/01 13:38:16;;;;;;;;;;;21.00;51.00;;;;;;5063575;28;19921;-66
2022/11/01 13:40:44;;;;;;;;;;;21.00;50.90;;;;;;5037740;28;20016;-68
2022/11/01 13:43:12;;;;;;;;;;;21.10;51.00;;;;;;5034587;28;19921;-68
2022/11/01 13:45:48;;;;;;;;;;;21.10;50.90;;;;;;5053163;28;20420;-68
2022/11/01 13:48:16;;;;;;;;;;;21.10;50.70;;;;;;5054054;28;19921;-67
2022/11/01 13:50:46;;;;;;;;;;;21.00;50.50;;;;;;5063536;28;19934;-75
2022/11/01 13:53:16;;;;;;;;;;;21.00;50.20;;;;;;5055806;28;20350;-71
2022/11/01 13:55:44;;;;;;;;;;;21.00;50.10;;;;;;5054917;28;19921;-68
2022/11/01 13:58:13;;;;;;;;;;;21.00;50.00;;;;;;5040664;28;20024;-69
2022/11/01 14:00:41;;;;;;;;;;;21.00;49.90;;;;;;5036320;28;19920;-70
2022/11/01 14:03:18;;;;;;;;;;;21.00;49.80;;;;;;5051476;28;19927;-68
2022/11/01 14:05:45;;;;;;;;;;;21.00;49.60;;;;;;5057310;28;19942;-68
2022/11/01 14:08:25;;;;;;;;;;;21.00;49.40;;;;;;5073086;28;20253;-71
2022/11/01 14:10:52;;;;;;;;;;;21.00;49.50;;;;;;5071007;28;20385;-70
2022/11/01 14:13:19;;;;;;;;;;;21.00;49.60;;;;;;5056605;28;19959;-70
2022/11/01 14:16:02;;;;;;;;;;;21.00;49.60;;;;;;5054005;28;19971;-69
2022/11/01 14:18:29;;;;;;;;;;;21.00;49.50;;;;;;5057492;28;19981;-68
2022/11/01 14:20:56;;;;;;;;;;;21.00;49.40;;;;;;5054668;28;19942;-68
2022/11/01 14:23:51;;;;;;;;;;;21.00;49.40;;;;;;5059056;28;19920;-68
2022/11/01 14:26:36;;;;;;;;;;;21.00;49.40;;;;;;5061050;28;19927;-68
2022/11/01 14:29:07;;;;;;;;;;;21.00;49.30;;;;;;5057370;28;19981;-68
2022/11/01 14:31:34;;;;;;;;;;;21.00;49.30;;;;;;5058213;28;19921;-68
2022/11/01 14:34:01;;;;;;;;;;;21.00;49.20;;;;;;5077761;28;20266;-71
2022/11/01 14:36:29;;;;;;;;;;;21.00;49.10;;;;;;5057704;28;19963;-68